アイウン の空港の天気 - METARとTAF

アイウン/ハッサン空港 ( GMML / EUN ) - 西サハラ アイウン
飛行場実況気象(Metar)
観測時間11/17 17:00 WET (11/17 17:00 UTC)
風向・風速西南西 10m/s
視程8000m
天気現象
全天の8割程度の雲 雲底高度 820m
気温21℃
湿度69%
気圧1011hPa
METARGMML 171700Z 25020KT 8000 BKN027 21/15 Q1011 NOSIG
過去の天気等 Google飛行場航空写真 Wunderground天気予報

過去48時間のMETAR

飛行場予報(TAF)
発表時間: 11/17 17:00 WET (11/17 17:00 UTC)
予報対象時間: 17日18時 WET ~ 19日0時 WET
風向・風速西南西 8m/s
視程8000m
全天の8割程度の雲 雲底高度 820m
18日1時 WET ~ 18日3時 WET に徐々に
全天の4割程度の雲 雲底高度 610m
TAF GMML 171700Z 1718/1824 25016KT 8000 BKN027
BECMG 1801/1803 SCT020